createdAt,value
2022-09-16T00:01:29.409Z,14.90
2022-09-16T00:04:02.135Z,14.90
2022-09-16T00:06:34.909Z,14.90
2022-09-16T00:09:07.960Z,14.90
2022-09-16T00:11:41.165Z,14.90
2022-09-16T00:14:14.519Z,14.90
2022-09-16T00:16:47.468Z,15.00
2022-09-16T00:19:20.139Z,15.00
2022-09-16T00:21:53.357Z,15.10
2022-09-16T00:24:26.236Z,15.20
2022-09-16T00:26:59.115Z,15.20
2022-09-16T00:29:31.837Z,15.30
2022-09-16T00:32:04.697Z,15.30
2022-09-16T00:34:37.461Z,15.20
2022-09-16T00:37:11.564Z,15.30
2022-09-16T00:39:44.479Z,15.30
2022-09-16T00:42:17.302Z,15.30
2022-09-16T00:45:09.794Z,15.30
2022-09-16T00:47:53.732Z,15.20
2022-09-16T00:50:38.496Z,15.30
2022-09-16T00:53:13.810Z,15.30
2022-09-16T00:55:48.382Z,15.30
2022-09-16T00:58:29.191Z,15.30
2022-09-16T01:01:02.069Z,15.40
2022-09-16T01:03:36.435Z,15.40
2022-09-16T01:06:09.927Z,15.40
2022-09-16T01:08:43.928Z,15.30
2022-09-16T01:11:16.889Z,15.30
2022-09-16T01:13:51.238Z,15.30
2022-09-16T01:16:35.013Z,15.30
2022-09-16T01:19:23.019Z,15.30
2022-09-16T01:22:01.013Z,15.30
2022-09-16T01:24:52.403Z,15.20
2022-09-16T01:27:45.201Z,15.20
2022-09-16T01:30:22.815Z,15.20
2022-09-16T01:33:10.519Z,15.20
2022-09-16T01:36:14.208Z,15.20
2022-09-16T01:38:54.595Z,15.30
2022-09-16T01:41:35.430Z,15.30
2022-09-16T01:44:13.441Z,15.30
2022-09-16T01:47:00.334Z,15.30
2022-09-16T01:49:41.408Z,15.30
2022-09-16T01:52:34.613Z,15.30
2022-09-16T01:55:09.389Z,15.30
2022-09-16T01:57:59.199Z,15.30
2022-09-16T02:00:33.603Z,15.30
2022-09-16T02:03:14.447Z,15.30
2022-09-16T02:06:04.610Z,15.40
2022-09-16T02:08:45.144Z,15.40
2022-09-16T02:11:20.683Z,15.40
2022-09-16T02:14:04.402Z,15.40
2022-09-16T02:16:48.391Z,15.50
2022-09-16T02:19:26.070Z,15.50
2022-09-16T02:22:01.542Z,15.50
2022-09-16T02:24:36.421Z,15.50
2022-09-16T02:27:11.546Z,15.50
2022-09-16T02:29:52.500Z,15.50
2022-09-16T02:32:26.752Z,15.50
2022-09-16T02:35:01.148Z,15.40
2022-09-16T02:37:44.946Z,15.40
2022-09-16T02:40:23.100Z,15.50
2022-09-16T02:42:56.165Z,15.50
2022-09-16T02:45:34.459Z,15.50
2022-09-16T02:48:37.906Z,15.50
2022-09-16T02:51:10.554Z,15.50
2022-09-16T02:53:48.168Z,15.50
2022-09-16T02:56:25.838Z,15.40
2022-09-16T02:58:58.679Z,15.40
2022-09-16T03:01:33.707Z,15.40
2022-09-16T03:04:06.819Z,15.40
2022-09-16T03:06:40.984Z,15.40
2022-09-16T03:09:15.635Z,15.40
2022-09-16T03:12:07.554Z,15.50
2022-09-16T03:14:48.254Z,15.50
2022-09-16T03:17:44.342Z,15.40
2022-09-16T03:20:40.664Z,15.40
2022-09-16T03:23:31.618Z,15.40
2022-09-16T03:26:21.634Z,15.40
2022-09-16T03:29:12.627Z,15.40
2022-09-16T03:31:50.066Z,15.40
2022-09-16T03:34:42.927Z,15.40
2022-09-16T03:37:17.830Z,15.50
2022-09-16T03:39:55.733Z,15.50
2022-09-16T03:42:28.560Z,15.50
2022-09-16T03:45:01.376Z,15.50
2022-09-16T03:47:34.095Z,15.50
2022-09-16T03:50:06.985Z,15.50
2022-09-16T03:52:39.728Z,15.50
2022-09-16T03:55:13.286Z,15.50
2022-09-16T03:57:46.012Z,15.50
2022-09-16T04:00:19.176Z,15.50
2022-09-16T04:02:52.054Z,15.50
2022-09-16T04:05:25.114Z,15.50
2022-09-16T04:07:58.074Z,15.50
2022-09-16T04:10:30.974Z,15.50
2022-09-16T04:13:03.791Z,15.50
2022-09-16T04:15:37.536Z,15.50
2022-09-16T04:18:10.498Z,15.40
2022-09-16T04:20:44.005Z,15.50
2022-09-16T04:23:16.962Z,15.50
2022-09-16T04:25:51.130Z,15.50
2022-09-16T04:28:24.036Z,15.50
2022-09-16T04:30:57.167Z,15.50
2022-09-16T04:33:32.309Z,15.40
2022-09-16T04:36:16.695Z,15.40
2022-09-16T04:38:50.601Z,15.50
2022-09-16T04:41:25.112Z,15.50
2022-09-16T04:43:59.217Z,15.40
2022-09-16T04:46:34.168Z,15.50
2022-09-16T04:49:07.196Z,15.40
2022-09-16T04:51:40.117Z,15.40
2022-09-16T04:54:14.122Z,15.40
2022-09-16T04:56:46.980Z,15.40
2022-09-16T04:59:19.760Z,15.40
2022-09-16T05:01:52.734Z,15.40
2022-09-16T05:04:25.573Z,15.40
2022-09-16T05:06:58.402Z,15.40
2022-09-16T05:09:31.422Z,15.40
2022-09-16T05:12:04.160Z,15.40
2022-09-16T05:14:36.941Z,15.40
2022-09-16T05:17:10.184Z,15.30
2022-09-16T05:19:42.884Z,15.30
2022-09-16T05:22:15.832Z,15.20
2022-09-16T05:24:48.764Z,15.20
2022-09-16T05:27:21.675Z,15.30
2022-09-16T05:29:54.575Z,15.20
2022-09-16T05:32:27.317Z,15.20
2022-09-16T05:35:00.162Z,15.20
2022-09-16T05:37:33.157Z,15.20
2022-09-16T05:40:06.441Z,15.20
2022-09-16T05:42:39.257Z,15.10
2022-09-16T05:45:13.029Z,15.10
2022-09-16T05:47:45.862Z,15.00
2022-09-16T05:50:19.044Z,15.00
2022-09-16T05:52:51.767Z,14.90
2022-09-16T05:55:28.819Z,14.90
2022-09-16T05:58:01.777Z,14.90
2022-09-16T06:00:34.966Z,14.90
2022-09-16T06:03:08.093Z,14.80
2022-09-16T06:05:45.547Z,14.80
2022-09-16T06:08:14.861Z,14.80
2022-09-16T06:10:47.574Z,14.80
2022-09-16T06:13:21.566Z,14.80
2022-09-16T06:15:57.147Z,14.80
2022-09-16T06:18:31.278Z,14.70
2022-09-16T06:21:08.929Z,14.70
2022-09-16T06:23:42.707Z,14.70
2022-09-16T06:26:20.283Z,14.60
2022-09-16T06:28:53.266Z,14.60
2022-09-16T06:31:28.141Z,14.60
2022-09-16T06:34:01.578Z,14.50
2022-09-16T06:36:36.078Z,14.50
2022-09-16T06:39:09.246Z,14.50
2022-09-16T06:41:42.274Z,14.50
2022-09-16T06:44:15.269Z,14.50
2022-09-16T06:46:48.331Z,14.50
2022-09-16T06:49:21.514Z,14.50
2022-09-16T06:51:54.765Z,14.40
2022-09-16T06:54:27.881Z,14.40
2022-09-16T06:57:00.637Z,14.40
2022-09-16T06:59:33.803Z,14.40
2022-09-16T07:02:06.782Z,14.40
2022-09-16T07:04:40.912Z,14.40
2022-09-16T07:07:14.416Z,14.40
2022-09-16T07:09:47.287Z,14.40
2022-09-16T07:12:20.099Z,14.40
2022-09-16T07:14:53.064Z,14.40
2022-09-16T07:17:27.336Z,14.40
2022-09-16T07:20:00.373Z,14.40
2022-09-16T07:22:34.598Z,14.40
2022-09-16T07:25:07.635Z,14.40
2022-09-16T07:27:40.410Z,14.40
2022-09-16T07:30:13.919Z,14.40
2022-09-16T07:32:46.905Z,14.30
2022-09-16T07:35:19.767Z,14.30
2022-09-16T07:37:52.675Z,14.30
2022-09-16T07:40:29.104Z,14.30
2022-09-16T07:42:59.373Z,14.30
2022-09-16T07:45:32.592Z,14.20
2022-09-16T07:48:08.393Z,14.20
2022-09-16T07:50:40.054Z,14.20
2022-09-16T07:53:12.872Z,14.20
2022-09-16T07:55:45.788Z,14.20
2022-09-16T07:58:23.195Z,14.20
2022-09-16T08:00:57.682Z,14.20
2022-09-16T08:03:30.241Z,14.10
2022-09-16T08:06:12.473Z,14.10
2022-09-16T08:08:45.477Z,14.10
2022-09-16T08:11:19.255Z,14.10
2022-09-16T08:13:52.219Z,14.10
2022-09-16T08:16:26.987Z,14.10
2022-09-16T08:19:01.662Z,14.10
2022-09-16T08:21:34.762Z,14.00
2022-09-16T08:24:10.988Z,14.00
2022-09-16T08:26:43.963Z,14.00
2022-09-16T08:29:17.421Z,14.00
2022-09-16T08:31:50.792Z,14.00
2022-09-16T08:34:23.866Z,14.00
2022-09-16T08:36:56.874Z,13.90
2022-09-16T08:39:29.931Z,13.90
2022-09-16T08:42:10.058Z,13.90
2022-09-16T08:44:53.934Z,13.90
2022-09-16T08:47:58.636Z,13.90
2022-09-16T08:50:33.455Z,13.90
2022-09-16T08:53:08.274Z,13.80
2022-09-16T08:55:42.832Z,13.80
2022-09-16T08:58:24.074Z,13.80
2022-09-16T09:01:05.404Z,13.80
2022-09-16T09:03:49.035Z,13.80
2022-09-16T09:06:23.765Z,13.80
2022-09-16T09:08:58.401Z,13.70
2022-09-16T09:12:08.519Z,13.70
2022-09-16T09:14:44.827Z,13.70
2022-09-16T09:17:23.752Z,13.70
2022-09-16T09:20:17.579Z,13.70
2022-09-16T09:23:06.857Z,13.70
2022-09-16T09:25:43.283Z,13.60
2022-09-16T09:28:33.172Z,13.60
2022-09-16T09:31:10.903Z,13.50
2022-09-16T09:33:47.326Z,13.50
2022-09-16T09:36:39.685Z,13.50
2022-09-16T09:39:23.998Z,13.50
2022-09-16T09:42:08.471Z,13.50
2022-09-16T09:44:52.717Z,13.50
2022-09-16T09:47:28.050Z,13.50
2022-09-16T09:50:08.415Z,13.50
2022-09-16T09:52:49.612Z,13.40
2022-09-16T09:55:24.299Z,13.40
2022-09-16T09:58:05.489Z,13.40
2022-09-16T10:00:38.471Z,13.40
2022-09-16T10:03:19.259Z,13.40
2022-09-16T10:05:52.969Z,13.40
2022-09-16T10:08:27.993Z,13.40
2022-09-16T10:11:02.493Z,13.50
2022-09-16T10:13:35.932Z,13.50
2022-09-16T10:16:13.840Z,13.50
2022-09-16T10:18:47.722Z,13.50
2022-09-16T10:21:21.372Z,13.50
2022-09-16T10:24:01.228Z,13.60
2022-09-16T10:26:35.001Z,13.60
2022-09-16T10:29:09.755Z,13.60
2022-09-16T10:31:45.261Z,13.60
2022-09-16T10:34:37.789Z,13.60
2022-09-16T10:37:15.409Z,13.60
2022-09-16T10:39:56.254Z,13.60
2022-09-16T10:42:32.950Z,13.60
2022-09-16T10:45:22.969Z,13.50
2022-09-16T10:47:58.582Z,13.50
2022-09-16T10:50:31.991Z,13.50
2022-09-16T10:53:09.549Z,13.50
2022-09-16T10:55:42.518Z,13.50
2022-09-16T10:58:22.631Z,13.50
2022-09-16T11:01:23.595Z,13.50
2022-09-16T11:04:07.365Z,13.50
2022-09-16T11:07:03.662Z,13.50
2022-09-16T11:09:38.428Z,13.50
2022-09-16T11:12:32.963Z,13.50
2022-09-16T11:15:12.937Z,13.50
2022-09-16T11:18:08.983Z,13.50
2022-09-16T11:21:08.908Z,13.50
2022-09-16T11:23:46.336Z,13.50
2022-09-16T11:26:21.027Z,13.50
2022-09-16T11:29:05.560Z,13.50
2022-09-16T11:31:56.482Z,13.50
2022-09-16T11:34:53.427Z,13.50
2022-09-16T11:37:43.247Z,13.50
2022-09-16T11:40:47.116Z,13.50
2022-09-16T11:43:28.042Z,13.50
2022-09-16T11:46:06.060Z,13.50
2022-09-16T11:48:41.309Z,13.50
2022-09-16T11:51:16.342Z,13.50
2022-09-16T11:53:57.744Z,13.50
2022-09-16T11:56:48.860Z,13.60
2022-09-16T11:59:38.887Z,13.50
2022-09-16T12:02:25.807Z,13.50
2022-09-16T12:05:26.319Z,13.60
2022-09-16T12:08:31.691Z,13.50
2022-09-16T12:11:15.307Z,13.50
2022-09-16T12:14:06.903Z,13.50
2022-09-16T12:17:12.276Z,13.50
2022-09-16T12:19:56.250Z,13.50
2022-09-16T12:22:37.010Z,13.50
2022-09-16T12:25:27.220Z,13.50
2022-09-16T12:28:02.224Z,13.50
2022-09-16T12:30:43.096Z,13.50
2022-09-16T12:33:29.611Z,13.50
2022-09-16T12:36:09.644Z,13.60
2022-09-16T12:38:43.004Z,13.60
2022-09-16T12:41:23.481Z,13.60
2022-09-16T12:44:30.370Z,13.60
2022-09-16T12:46:55.065Z,13.60
2022-09-16T12:50:01.771Z,13.60
2022-09-16T12:52:54.829Z,13.60
2022-09-16T12:55:52.235Z,13.60
2022-09-16T12:58:32.919Z,13.50
2022-09-16T13:01:20.167Z,13.50
2022-09-16T13:04:06.950Z,13.50
2022-09-16T13:06:41.603Z,13.50
2022-09-16T13:09:35.282Z,13.60
2022-09-16T13:12:36.681Z,13.60
2022-09-16T13:14:49.430Z,13.60
2022-09-16T13:17:32.727Z,13.60
2022-09-16T13:20:25.743Z,13.60
2022-09-16T13:23:03.801Z,13.60
2022-09-16T13:25:41.658Z,13.60
2022-09-16T13:28:41.331Z,13.60
2022-09-16T13:31:20.669Z,13.60
2022-09-16T13:34:05.301Z,13.60
2022-09-16T13:36:38.895Z,13.60
2022-09-16T13:39:16.728Z,13.60
2022-09-16T13:41:51.212Z,13.60
2022-09-16T13:44:35.438Z,13.60
2022-09-16T13:47:19.433Z,13.60
2022-09-16T13:49:59.835Z,13.60
2022-09-16T13:52:39.600Z,13.60
2022-09-16T13:55:26.832Z,13.60
2022-09-16T13:58:04.777Z,13.60
2022-09-16T14:00:56.140Z,13.60
2022-09-16T14:03:52.627Z,13.60
2022-09-16T14:06:48.978Z,13.60
2022-09-16T14:09:55.220Z,13.50
2022-09-16T14:12:49.314Z,13.50
2022-09-16T14:15:23.850Z,13.50
2022-09-16T14:18:01.107Z,13.50
2022-09-16T14:20:34.984Z,13.50
2022-09-16T14:23:09.417Z,13.50
2022-09-16T14:25:42.737Z,13.50
2022-09-16T14:28:26.772Z,13.50
2022-09-16T14:31:01.282Z,13.50
2022-09-16T14:33:36.251Z,13.50
2022-09-16T14:36:19.833Z,13.50
2022-09-16T14:38:54.729Z,13.50
2022-09-16T14:41:38.322Z,13.50
2022-09-16T14:44:24.610Z,13.50
2022-09-16T14:47:21.840Z,13.50
2022-09-16T14:49:46.893Z,13.50
2022-09-16T14:52:27.328Z,13.50
2022-09-16T14:55:03.872Z,13.50
2022-09-16T14:57:37.380Z,13.50
2022-09-16T15:00:12.356Z,13.50
2022-09-16T15:02:53.200Z,13.50
2022-09-16T15:05:40.052Z,13.50
2022-09-16T15:08:15.085Z,13.50
2022-09-16T15:10:52.990Z,13.50
2022-09-16T15:13:31.086Z,13.50
2022-09-16T15:16:05.831Z,13.50
2022-09-16T15:18:40.553Z,13.50
2022-09-16T15:21:24.112Z,13.50
2022-09-16T15:23:59.623Z,13.50
2022-09-16T15:26:48.061Z,13.50
2022-09-16T15:29:26.274Z,13.50
2022-09-16T15:32:00.669Z,13.50
2022-09-16T15:34:33.379Z,13.50
2022-09-16T15:37:06.390Z,13.40
2022-09-16T15:39:41.921Z,13.40
2022-09-16T15:42:26.968Z,13.40
2022-09-16T15:45:01.642Z,13.40
2022-09-16T15:47:39.163Z,13.40
2022-09-16T15:50:16.803Z,13.40
2022-09-16T15:52:58.130Z,13.40
2022-09-16T15:55:41.817Z,13.40
2022-09-16T15:58:33.279Z,13.30
2022-09-16T16:01:17.110Z,13.30
2022-09-16T16:03:52.026Z,13.30
2022-09-16T16:06:25.240Z,13.20
2022-09-16T16:08:59.331Z,13.20
2022-09-16T16:11:32.865Z,13.20
2022-09-16T16:14:05.713Z,13.20
2022-09-16T16:17:01.502Z,13.20
2022-09-16T16:19:13.527Z,13.10
2022-09-16T16:21:47.814Z,13.10
2022-09-16T16:24:20.636Z,13.10
2022-09-16T16:26:56.691Z,13.10
2022-09-16T16:29:27.563Z,13.10
2022-09-16T16:32:05.599Z,13.00
2022-09-16T16:34:40.288Z,13.00
2022-09-16T16:37:33.851Z,13.00
2022-09-16T16:39:49.249Z,13.00
2022-09-16T16:42:22.892Z,13.00
2022-09-16T16:44:55.886Z,13.00
2022-09-16T16:47:28.799Z,12.90
2022-09-16T16:50:02.668Z,12.90
2022-09-16T16:52:35.590Z,12.90
2022-09-16T16:55:08.628Z,12.90
2022-09-16T16:57:41.469Z,12.90
2022-09-16T17:00:16.228Z,12.90
2022-09-16T17:02:49.436Z,13.00
2022-09-16T17:05:21.990Z,12.90
2022-09-16T17:07:54.698Z,13.00
2022-09-16T17:10:27.767Z,13.00
2022-09-16T17:13:00.745Z,12.90
2022-09-16T17:15:33.610Z,13.00
2022-09-16T17:18:06.470Z,12.90
2022-09-16T17:20:39.585Z,12.90
2022-09-16T17:23:12.347Z,12.90
2022-09-16T17:25:46.189Z,12.90
2022-09-16T17:28:20.123Z,12.90
2022-09-16T17:30:53.004Z,12.90
2022-09-16T17:33:25.954Z,12.90
2022-09-16T17:36:10.244Z,12.90
2022-09-16T17:38:43.351Z,12.80
2022-09-16T17:41:18.369Z,12.80
2022-09-16T17:43:52.474Z,12.80
2022-09-16T17:46:29.724Z,12.70
2022-09-16T17:49:13.210Z,12.70
2022-09-16T17:51:46.041Z,12.70
2022-09-16T17:54:19.232Z,12.70
2022-09-16T17:56:52.024Z,12.70
2022-09-16T17:59:24.955Z,12.70
2022-09-16T18:01:57.836Z,12.60
2022-09-16T18:04:30.947Z,12.60
2022-09-16T18:07:03.782Z,12.60
2022-09-16T18:09:36.747Z,12.60
2022-09-16T18:12:09.966Z,12.60
2022-09-16T18:14:42.813Z,12.60
2022-09-16T18:17:15.746Z,12.60
2022-09-16T18:19:48.772Z,12.60
2022-09-16T18:22:21.629Z,12.50
2022-09-16T18:24:54.403Z,12.50
2022-09-16T18:27:28.010Z,12.50
2022-09-16T18:30:00.842Z,12.40
2022-09-16T18:32:33.724Z,12.40
2022-09-16T18:35:06.697Z,12.40
2022-09-16T18:37:39.246Z,12.40
2022-09-16T18:40:13.554Z,12.30
2022-09-16T18:42:46.477Z,12.30
2022-09-16T18:45:19.558Z,12.30
2022-09-16T18:47:52.320Z,12.30
2022-09-16T18:50:25.139Z,12.30
2022-09-16T18:52:57.902Z,12.30
2022-09-16T18:55:30.744Z,12.30
2022-09-16T18:58:03.811Z,12.30
2022-09-16T19:00:37.732Z,12.30
2022-09-16T19:03:10.499Z,12.30
2022-09-16T19:05:43.378Z,12.40
2022-09-16T19:08:16.102Z,12.30
2022-09-16T19:10:49.057Z,12.40
2022-09-16T19:13:22.075Z,12.40
2022-09-16T19:15:56.132Z,12.50
2022-09-16T19:18:38.318Z,12.50
2022-09-16T19:21:18.818Z,12.60
2022-09-16T19:23:54.001Z,12.60
2022-09-16T19:26:26.930Z,12.60
2022-09-16T19:29:00.397Z,12.70
2022-09-16T19:31:33.871Z,12.70
2022-09-16T19:34:06.784Z,12.70
2022-09-16T19:36:40.610Z,12.80
2022-09-16T19:39:14.438Z,12.80
2022-09-16T19:41:47.661Z,12.80
2022-09-16T19:44:21.327Z,12.80
2022-09-16T19:46:54.056Z,12.90
2022-09-16T19:49:27.331Z,13.00
2022-09-16T19:52:00.355Z,13.00
2022-09-16T19:54:33.212Z,13.10
2022-09-16T19:57:06.330Z,13.10
2022-09-16T19:59:39.417Z,13.20
2022-09-16T20:02:13.496Z,13.20
2022-09-16T20:04:46.291Z,13.30
2022-09-16T20:07:19.713Z,13.40
2022-09-16T20:09:52.545Z,13.40
2022-09-16T20:12:25.859Z,13.50
2022-09-16T20:14:58.979Z,13.50
2022-09-16T20:17:31.751Z,13.50
2022-09-16T20:20:04.780Z,13.60
2022-09-16T20:22:37.689Z,13.60
2022-09-16T20:25:22.464Z,13.60
2022-09-16T20:27:45.085Z,13.60
2022-09-16T20:30:19.570Z,13.70
2022-09-16T20:32:52.626Z,13.70
2022-09-16T20:35:25.429Z,13.70
2022-09-16T20:37:58.286Z,13.70
2022-09-16T20:40:31.253Z,13.70
2022-09-16T20:43:04.386Z,13.80
2022-09-16T20:45:39.254Z,13.80
2022-09-16T20:48:12.203Z,13.80
2022-09-16T20:50:44.955Z,13.80
2022-09-16T20:53:17.792Z,13.90
2022-09-16T20:55:50.600Z,13.90
2022-09-16T20:58:23.611Z,13.90
2022-09-16T21:00:56.518Z,13.90
2022-09-16T21:03:29.392Z,14.00
2022-09-16T21:06:10.596Z,14.00
2022-09-16T21:08:43.841Z,14.00
2022-09-16T21:11:21.241Z,14.10
2022-09-16T21:14:02.212Z,14.10
2022-09-16T21:16:35.983Z,14.10
2022-09-16T21:19:13.673Z,14.20
2022-09-16T21:21:49.073Z,14.20
2022-09-16T21:24:21.943Z,14.30
2022-09-16T21:26:55.655Z,14.30
2022-09-16T21:29:29.183Z,14.40
2022-09-16T21:32:02.311Z,14.40
2022-09-16T21:34:35.219Z,14.40
2022-09-16T21:37:08.027Z,14.50
2022-09-16T21:39:40.968Z,14.50
2022-09-16T21:42:13.915Z,14.60
2022-09-16T21:44:47.201Z,14.70
2022-09-16T21:47:20.095Z,14.70
2022-09-16T21:49:53.956Z,14.70
2022-09-16T21:52:26.991Z,14.70
2022-09-16T21:55:00.013Z,14.80
2022-09-16T21:57:32.849Z,14.80
2022-09-16T22:00:06.359Z,14.90
2022-09-16T22:02:39.382Z,15.00
2022-09-16T22:05:12.833Z,15.10
2022-09-16T22:07:45.611Z,15.20
2022-09-16T22:10:18.739Z,15.20
2022-09-16T22:12:51.536Z,15.20
2022-09-16T22:15:24.607Z,15.20
2022-09-16T22:17:57.472Z,15.20
2022-09-16T22:20:30.437Z,15.20
2022-09-16T22:23:03.398Z,15.20
2022-09-16T22:25:37.429Z,15.20
2022-09-16T22:28:10.205Z,15.20
2022-09-16T22:30:43.410Z,15.20
2022-09-16T22:33:16.657Z,15.20
2022-09-16T22:35:49.624Z,15.20
2022-09-16T22:38:22.531Z,15.30
2022-09-16T22:40:55.259Z,15.30
2022-09-16T22:43:28.150Z,15.30
2022-09-16T22:46:03.028Z,15.30
2022-09-16T22:48:36.093Z,15.30
2022-09-16T22:51:09.136Z,15.30
2022-09-16T22:53:42.783Z,15.40
2022-09-16T22:56:17.561Z,15.50
2022-09-16T22:58:52.185Z,15.50
2022-09-16T23:01:26.797Z,15.60
2022-09-16T23:04:01.270Z,15.60
2022-09-16T23:06:35.263Z,15.60
2022-09-16T23:09:09.452Z,15.60
2022-09-16T23:11:42.248Z,15.60
2022-09-16T23:14:29.242Z,15.60
2022-09-16T23:17:02.183Z,15.60
2022-09-16T23:19:34.944Z,15.60
2022-09-16T23:22:07.733Z,15.60
2022-09-16T23:24:43.555Z,15.60
2022-09-16T23:27:16.514Z,15.60
2022-09-16T23:29:49.210Z,15.60
2022-09-16T23:32:22.451Z,15.60
2022-09-16T23:34:55.810Z,15.60
2022-09-16T23:37:28.749Z,15.60
2022-09-16T23:40:02.129Z,15.60
2022-09-16T23:42:36.320Z,15.60
2022-09-16T23:45:09.625Z,15.60
2022-09-16T23:47:42.735Z,15.60
2022-09-16T23:50:15.446Z,15.60
2022-09-16T23:52:48.491Z,15.60
2022-09-16T23:55:21.355Z,15.60
2022-09-16T23:57:54.661Z,15.60
